KMBL/MBL METAR and TAF weather

Enter ICAO airport designator
Station Type Date Time Source
KMBL METAR 2021/07/29 01:56 UTC NOAA

KMBL 290156Z AUTO 00000KT 10SM -RA FEW075 BKN095 22/22 A2994 RMK AO2 RAB11 SLP135 P0000 T02220222


Station Type Date Time Source
KMBL Decoded METAR 2021/07/29 01:56 UTC NOAA

Manistee, Manistee County-Blacker Airport, MI, United States (KMBL) 44-16N 086-15W
Jul 28, 2021 - 09:56 PM EDT / 2021.07.29 0156 UTC
Wind: Calm:0
Visibility: 10 mile(s):0
Sky conditions: mostly cloudy
Weather: light rain
Precipitation last hour: A trace
Temperature: 72.0 F (22.2 C)
Dew Point: 72.0 F (22.2 C)
Relative Humidity: 100%
Pressure (altimeter): 29.94 in. Hg (1013 hPa)
ob: KMBL 290156Z AUTO 00000KT 10SM -RA FEW075 BKN095 22/22 A2994 RMK AO2 RAB11 SLP135 P0000 T02220222
cycle: 2

Station Type Date Time Source
KMBL TAF 2021/07/29 02:42 UTC NOAA

TAF
AMD KMBL 290141Z 2902/2924 VRB03KT 6SM -SHRA VCTS SCT025 OVC050CB
FM291200 33009KT P6SM BKN025
FM291800 35013G22KT P6SM SCT040

Example: see airport list